ADDS METAR Data INFO
IDs: Format: Raw Decoded Include TAF

Data at: 0544 UTC 11 Dec 2017

KRIL 110453Z AUTO 21004KT 10SM CLR M07/M17 A3056 RMK AO2 SLP390 T10671167
KRIL 110353Z AUTO 08003KT 10SM CLR M05/M16 A3053 RMK AO2 SLP386 T10501161
KRIL 110253Z AUTO 00000KT 10SM CLR M03/M17 A3053 RMK AO2 SLP390 T10331167 53008
KRIL 110153Z AUTO 10005KT 10SM CLR M02/M16 A3051 RMK AO2 SLP382 T10221161
KRIL 110053Z AUTO 00000KT 10SM CLR 00/M17 A3051 RMK AO2 SLP377 T00001167
KRIL 102353Z AUTO 21006KT 10SM CLR 02/M16 A3050 RMK AO2 SLP366 T00221161 10094 20006 55006
KRIL 102253Z AUTO 24004KT 10SM CLR 08/M17 A3049 RMK AO2 SLP348 T00781167
KRIL 102153Z AUTO 00000KT 10SM CLR 09/M18 A3050 RMK AO2 SLP348 T00941178
KRIL 102053Z AUTO 00000KT 10SM CLR 07/M17 A3052 RMK AO2 SLP360 T00721167 58030
KRIL 101953Z AUTO 32003KT 10SM CLR 06/M16 A3055 RMK AO2 SLP372 T00561161
KRIL 101853Z AUTO 00000KT 10SM CLR 03/M16 A3059 RMK AO2 SLP391 T00331156
KRIL 101753Z AUTO 00000KT 10SM CLR 01/M13 A3062 RMK AO2 SLP405 T00061133 10006 21117 58002
KRIL 101653Z AUTO 00000KT 10SM CLR M03/M13 A3064 RMK AO2 SLP418 T10281128
KRIL 101553Z AUTO 27003KT 10SM CLR M07/M13 A3064 RMK AO2 SLP425 T10671133
KRIL 101453Z AUTO 00000KT 10SM CLR M10/M15 A3063 RMK AO2 SLP429 T11001150 53005
KRIL 101353Z AUTO 22003KT 10SM CLR M11/M16 A3063 RMK AO2 SLP427 T11061156
KRIL 101253Z AUTO 13003KT 10SM CLR M11/M16 A3061 RMK AO2 SLP418 T11111156
KRIL 101153Z AUTO 13004KT 10SM CLR M10/M15 A3061 RMK AO2 SLP407 T11001150 11067 21106 53002
KRIL 101053Z AUTO 00000KT 10SM CLR M09/M14 A3061 RMK AO2 SLP391 T10941144
KRIL 100953Z AUTO 00000KT 10SM CLR M10/M15 A3061 RMK AO2 SLP388 T11001150
KRIL 100853Z AUTO 00000KT 10SM CLR M09/M15 A3061 RMK AO2 SLP391 T10941150 50005
KRIL 100753Z AUTO 12004KT 10SM CLR M08/M14 A3061 RMK AO2 SLP391 T10781144
KRIL 100653Z AUTO 16003KT 10SM CLR M08/M14 A3060 RMK AO2 SLP392 T10781144 400831111
KRIL 100553Z AUTO 00000KT 10SM CLR M07/M14 A3059 RMK AO2 SLP396 T10671139 10017 21078 51012
KRIL 100453Z AUTO 00000KT 10SM CLR M07/M14 A3058 RMK AO2 SLP397 T10671144
KRIL 100353Z AUTO 00000KT 10SM CLR M05/M14 A3056 RMK AO2 SLP398 T10501139
KRIL 100253Z AUTO 20004KT 10SM CLR M04/M13 A3055 RMK AO2 SLP399 T10441133 53018
KRIL 100153Z AUTO 18003KT 10SM CLR M04/M14 A3053 RMK AO2 SLP391 T10391139
KRIL 100053Z AUTO 16004KT 10SM CLR M01/M13 A3051 RMK AO2 SLP377 T10111133
KRIL 092353Z AUTO 20008KT 10SM CLR 02/M13 A3048 RMK AO2 SLP361 T00171128 10083 20000 55001
KRIL 092253Z AUTO 00000KT 10SM CLR 07/M13 A3048 RMK AO2 SLP346 T00721133
KRIL 092153Z AUTO 00000KT 10SM CLR 08/M14 A3048 RMK AO2 SLP344 T00831139
KRIL 092053Z AUTO 10003KT 10SM CLR 07/M12 A3049 RMK AO2 SLP347 T00721122 58028
KRIL 091953Z AUTO 07003KT 10SM CLR 06/M12 A3052 RMK AO2 SLP361 T00561117
KRIL 091853Z AUTO 00000KT 10SM CLR 03/M11 A3056 RMK AO2 SLP375 T00281106
KRIL 091753Z AUTO VRB03KT 10SM CLR 00/M10 A3059 RMK AO2 SLP394 T00001100 10000 21111 58003